Station History

Weather Underground - logo

Station Historical Data
Daily Summary for January 6, 2018 Units:  Metric    English   Both
« Previous Day
Next Day »
Daily Weekly Monthly Yearly Custom
  High: Low: Average:
Temperature: 18.3 °C 12.7 °C 15.3 °C
Dew Point: 15.1 °C 12.1 °C 13.4 °C
Humidity: 96 % 80 % 89 %
Wind Speed: 9.3 km/h 0 km/h 1.3 km/h
Wind Gust: 9.3 km/h - -
Wind:- - NW
Pressure: 1022.2 hPa 1019.5 hPa -
Precipitation: 0 mm    
Historical Graphs
 
 
Tabular Data for January 6, 2018
Time Temperature Dew Point Pressure Wind Wind Speed Wind Gust Humidity Rainfall Rate (Hourly)
00:04 14.8 °C 12.6 °C 1021.9 hPa Calm     87 % 0 mm
00:06 14.8 °C 12.6 °C 1021.6 hPa Calm     87 % 0 mm
00:11 14.8 °C 12.5 °C 1021.6 hPa Calm     86 % 0 mm
00:16 14.9 °C 12.6 °C 1021.6 hPa Calm     86 % 0 mm
00:21 15.1 °C 12.7 °C 1021.6 hPa North 1.9 km/h 1.9 km/h 86 % 0 mm
00:25 15.1 °C 12.6 °C 1021.6 hPa Calm     85 % 0 mm
00:30 15.2 °C 12.7 °C 1021.6 hPa Calm     85 % 0 mm
00:35 15.3 °C 12.6 °C 1021.2 hPa NW 3.7 km/h 3.7 km/h 84 % 0 mm
00:40 15.4 °C 12.8 °C 1021.2 hPa Calm     84 % 0 mm
00:45 15.5 °C 12.6 °C 1021.2 hPa WNW 1.9 km/h   83 % 0 mm
00:50 15.6 °C 12.6 °C 1020.9 hPa Calm     82 % 0 mm
00:51 15.7 °C 12.6 °C 1020.9 hPa Calm     82 % 0 mm
00:53 15.7 °C 12.7 °C 1020.9 hPa WNW 1.9 km/h   82 % 0 mm
00:58 15.7 °C 12.7 °C 1020.9 hPa NNW 1.9 km/h 1.9 km/h 82 % 0 mm
01:01 15.8 °C 12.7 °C 1020.9 hPa NW 3.7 km/h 3.7 km/h 82 % 0 mm
01:06 15.8 °C 12.6 °C 1020.5 hPa WNW 1.9 km/h 1.9 km/h 81 % 0 mm
01:07 15.8 °C 12.6 °C 1020.5 hPa NW 1.9 km/h 1.9 km/h 81 % 0 mm
01:12 15.9 °C 12.6 °C 1020.5 hPa Calm     81 % 0 mm
01:16 15.8 °C 12.6 °C 1020.9 hPa WNW 1.9 km/h   81 % 0 mm
01:21 15.8 °C 12.5 °C 1020.5 hPa NW 1.9 km/h   81 % 0 mm
01:26 15.8 °C 12.5 °C 1020.5 hPa Calm     81 % 0 mm
01:32 15.8 °C 12.5 °C 1020.5 hPa Calm     81 % 0 mm
01:34 15.7 °C 12.4 °C 1020.5 hPa Calm     81 % 0 mm
01:38 15.7 °C 12.4 °C 1020.5 hPa Calm     81 % 0 mm
01:44 15.6 °C 12.6 °C 1020.5 hPa Calm   0.2 km/h 82 % 0 mm
01:49 15.5 °C 12.4 °C 1020.5 hPa NW 1.9 km/h 1.9 km/h 82 % 0 mm
01:54 15.5 °C 12.4 °C 1020.5 hPa NNW 1.9 km/h   82 % 0 mm
01:58 15.5 °C 12.4 °C 1020.9 hPa Calm     82 % 0 mm
02:03 15.4 °C 12.5 °C 1020.5 hPa NNW 1.6 km/h   83 % 0 mm
02:07 15.2 °C 12.3 °C 1020.5 hPa Calm     83 % 0 mm
02:13 15.1 °C 12.4 °C 1020.5 hPa Calm     84 % 0 mm
02:15 15.1 °C 12.4 °C 1020.5 hPa Calm     84 % 0 mm
02:18 15.1 °C 12.4 °C 1020.2 hPa NNW 1.9 km/h 1.9 km/h 84 % 0 mm
02:23 15 °C 12.3 °C 1020.2 hPa Calm     84 % 0 mm
02:28 15.1 °C 12.4 °C 1019.9 hPa Calm   0.2 km/h 84 % 0 mm
02:38 15.3 °C 12.4 °C 1019.9 hPa NW 1.9 km/h 1.9 km/h 83 % 0 mm
02:43 15.4 °C 12.6 °C 1019.9 hPa NNW 3.7 km/h 3.7 km/h 83 % 0 mm
02:48 15.6 °C 12.6 °C 1019.9 hPa Calm     82 % 0 mm
02:53 15.8 °C 12.5 °C 1019.5 hPa WNW 1.9 km/h   81 % 0 mm
02:58 15.9 °C 12.6 °C 1019.9 hPa Calm     81 % 0 mm
03:04 15.9 °C 12.6 °C 1019.5 hPa Calm     81 % 0 mm
03:09 15.9 °C 12.5 °C 1019.5 hPa Calm     80 % 0 mm
03:10 16 °C 12.6 °C 1019.5 hPa Calm     80 % 0 mm
03:15 16.1 °C 12.6 °C 1019.9 hPa NW 1.9 km/h 1.9 km/h 80 % 0 mm
03:16 16.1 °C 12.6 °C 1019.9 hPa NW 1.9 km/h 1.9 km/h 80 % 0 mm
03:21 15.8 °C 12.5 °C 1019.9 hPa NW 1.9 km/h 1.9 km/h 81 % 0 mm
03:23 15.7 °C 12.6 °C 1019.9 hPa NW 1.9 km/h 1.9 km/h 82 % 0 mm
03:28 15.3 °C 12.4 °C 1019.9 hPa NW 1.9 km/h 1.9 km/h 83 % 0 mm
03:33 15.2 °C 12.3 °C 1019.9 hPa Calm     83 % 0 mm
03:38 15.1 °C 12.4 °C 1019.9 hPa Calm     84 % 0 mm
03:43 14.9 °C 12.2 °C 1020.2 hPa Calm     84 % 0 mm
03:48 14.7 °C 12.2 °C 1020.2 hPa NW 1.9 km/h 1.9 km/h 85 % 0 mm
03:51 14.7 °C 12.2 °C 1020.2 hPa NW 1.9 km/h 1.9 km/h 85 % 0 mm
03:55 14.7 °C 12.2 °C 1020.2 hPa Calm     85 % 0 mm
03:59 14.7 °C 12.4 °C 1020.5 hPa NW 3.7 km/h 3.7 km/h 86 % 0 mm
04:04 14.9 °C 12.6 °C 1020.5 hPa NNE 1.9 km/h 1.9 km/h 86 % 0 mm
04:06 14.9 °C 12.6 °C 1020.5 hPa NW 1.9 km/h 1.9 km/h 86 % 0 mm
04:11 14.9 °C 12.6 °C 1020.5 hPa Calm     86 % 0 mm
04:16 14.9 °C 12.6 °C 1020.5 hPa Calm     86 % 0 mm
04:20 14.9 °C 12.8 °C 1020.5 hPa NW 1.6 km/h 1.6 km/h 87 % 0 mm
04:25 14.9 °C 12.7 °C 1020.5 hPa Calm     87 % 0 mm
04:30 14.8 °C 12.7 °C 1020.5 hPa Calm     87 % 0 mm
04:31 14.8 °C 12.7 °C 1020.5 hPa Calm     87 % 0 mm
04:36 14.8 °C 12.8 °C 1020.5 hPa Calm     88 % 0 mm
04:40 14.7 °C 12.7 °C 1020.5 hPa Calm     88 % 0 mm
04:45 14.6 °C 12.8 °C 1020.9 hPa Calm     89 % 0 mm
04:50 14.6 °C 12.8 °C 1020.9 hPa Calm     89 % 0 mm
04:55 14.6 °C 12.8 °C 1020.9 hPa Calm     89 % 0 mm
05:00 14.5 °C 12.7 °C 1021.2 hPa Calm     89 % 0 mm
05:05 14.5 °C 12.9 °C 1021.2 hPa Calm     90 % 0 mm
05:10 14.4 °C 12.8 °C 1021.2 hPa Calm     90 % 0 mm
05:15 14.3 °C 12.7 °C 1021.2 hPa Calm     90 % 0 mm
05:20 14.3 °C 12.7 °C 1021.6 hPa Calm     90 % 0 mm
05:21 14.3 °C 12.7 °C 1021.6 hPa Calm     90 % 0 mm
05:26 14.2 °C 12.8 °C 1021.6 hPa Calm     91 % 0 mm
05:27 14.2 °C 12.8 °C 1021.6 hPa Calm     91 % 0 mm
05:32 14.1 °C 12.6 °C 1021.6 hPa Calm     91 % 0 mm
05:34 14 °C 12.7 °C 1021.6 hPa Calm     92 % 0 mm
05:39 13.9 °C 12.7 °C 1021.6 hPa Calm     92 % 0 mm
05:44 13.9 °C 12.6 °C 1021.6 hPa Calm     92 % 0 mm
05:49 13.8 °C 12.5 °C 1021.6 hPa Calm     92 % 0 mm
05:54 13.7 °C 12.6 °C 1021.6 hPa Calm     93 % 0 mm
05:59 13.7 °C 12.6 °C 1021.6 hPa SE 1.9 km/h   93 % 0 mm
06:04 13.6 °C 12.5 °C 1021.6 hPa Calm     93 % 0 mm
06:09 13.6 °C 12.4 °C 1021.6 hPa Calm     93 % 0 mm
06:10 13.6 °C 12.4 °C 1021.6 hPa Calm     93 % 0 mm
06:11 13.6 °C 12.4 °C 1021.6 hPa Calm     93 % 0 mm
06:16 13.5 °C 12.4 °C 1021.6 hPa Calm     93 % 0 mm
06:21 13.4 °C 12.3 °C 1021.6 hPa Calm     93 % 0 mm
06:26 13.4 °C 12.3 °C 1021.6 hPa Calm     93 % 0 mm
06:31 13.4 °C 12.4 °C 1021.6 hPa Calm     94 % 0 mm
06:36 13.3 °C 12.4 °C 1021.6 hPa Calm     94 % 0 mm
06:41 13.3 °C 12.3 °C 1021.6 hPa Calm     94 % 0 mm
06:46 13.2 °C 12.3 °C 1021.6 hPa Calm     94 % 0 mm
06:51 13.2 °C 12.3 °C 1021.9 hPa Calm     94 % 0 mm
06:58 13.2 °C 12.3 °C 1021.9 hPa Calm     94 % 0 mm
07:03 13.2 °C 12.3 °C 1021.9 hPa Calm     94 % 0 mm
07:08 13.2 °C 12.2 °C 1021.9 hPa Calm     94 % 0 mm
07:10 13.2 °C 12.2 °C 1021.9 hPa Calm     94 % 0 mm
07:15 13.2 °C 12.3 °C 1022.2 hPa Calm     94 % 0 mm
07:19 13.2 °C 12.2 °C 1021.9 hPa Calm     94 % 0 mm
07:24 13.2 °C 12.2 °C 1021.9 hPa WNW 1.9 km/h 1.9 km/h 94 % 0 mm
07:29 13.1 °C 12.2 °C 1022.2 hPa Calm     94 % 0 mm
07:34 13.1 °C 12.2 °C 1022.2 hPa Calm     94 % 0 mm
07:37 13.1 °C 12.3 °C 1021.9 hPa Calm     95 % 0 mm
07:42 13.2 °C 12.4 °C 1021.9 hPa Calm     95 % 0 mm
07:44 13.2 °C 12.4 °C 1021.9 hPa Calm     95 % 0 mm
07:49 13.3 °C 12.5 °C 1022.2 hPa Calm     95 % 0 mm
07:54 13.4 °C 12.6 °C 1022.2 hPa Calm     95 % 0 mm
08:00 13.6 °C 12.8 °C 1022.2 hPa Calm     95 % 0 mm
08:11 13.7 °C 12.8 °C 1021.9 hPa Calm     94 % 0 mm
08:13 13.8 °C 12.8 °C 1021.9 hPa Calm     94 % 0 mm
08:18 13.8 °C 12.9 °C 1021.6 hPa WNW 1.9 km/h   94 % 0 mm
08:23 13.9 °C 13 °C 1021.6 hPa WNW 1.9 km/h 1.9 km/h 94 % 0 mm
08:28 14 °C 12.9 °C 1021.6 hPa WNW 1.9 km/h   93 % 0 mm
08:33 14.1 °C 13 °C 1021.6 hPa NW 1.9 km/h   93 % 0 mm
08:38 14.2 °C 13.1 °C 1021.6 hPa NW 1.9 km/h   93 % 0 mm
08:44 14.4 °C 13.3 °C 1021.9 hPa NNW 3.7 km/h 3.7 km/h 93 % 0 mm
08:47 14.7 °C 13.6 °C 1021.9 hPa NW 3.7 km/h 3.7 km/h 93 % 0 mm
08:52 14.8 °C 13.6 °C 1021.6 hPa NW 5.6 km/h 5.6 km/h 92 % 0 mm
08:57 14.9 °C 13.6 °C 1021.6 hPa NW 4.8 km/h 4.8 km/h 92 % 0 mm
09:01 14.9 °C 13.4 °C 1021.6 hPa NW 3.7 km/h 3.7 km/h 91 % 0 mm
09:06 14.9 °C 13.4 °C 1021.6 hPa North 1.9 km/h 1.9 km/h 91 % 0 mm
09:09 14.9 °C 13.4 °C 1021.6 hPa NW 3.7 km/h 3.7 km/h 91 % 0 mm
09:14 14.9 °C 13.6 °C 1021.6 hPa NNW 5.6 km/h 5.6 km/h 92 % 0 mm
09:19 14.9 °C 13.6 °C 1021.6 hPa NNW 5.6 km/h 5.6 km/h 92 % 0 mm
09:24 14.9 °C 13.7 °C 1021.9 hPa NW 1.9 km/h 1.9 km/h 92 % 0 mm
09:29 15 °C 13.7 °C 1021.9 hPa WNW 1.9 km/h   92 % 0 mm
09:34 15.1 °C 13.8 °C 1021.9 hPa NW 1.6 km/h 1.6 km/h 92 % 0 mm
09:39 15.3 °C 13.8 °C 1021.9 hPa NW 1.9 km/h 1.9 km/h 91 % 0 mm
09:44 15.4 °C 14 °C 1021.9 hPa NW 3.7 km/h 3.7 km/h 91 % 0 mm
09:45 15.4 °C 14 °C 1021.9 hPa NW 1.9 km/h 1.9 km/h 91 % 0 mm
09:50 15.6 °C 14 °C 1021.9 hPa Calm     90 % 0 mm
09:55 15.8 °C 14.2 °C 1021.9 hPa Calm     90 % 0 mm
09:59 15.9 °C 14.3 °C 1021.9 hPa North 1.6 km/h 1.6 km/h 90 % 0 mm
10:04 16.1 °C 14.2 °C 1021.9 hPa Calm     89 % 0 mm
10:10 16.3 °C 14.3 °C 1021.9 hPa NNW 1.9 km/h   88 % 0 mm
10:15 16.5 °C 14.3 °C 1021.9 hPa Calm     87 % 0 mm
10:18 16.7 °C 14.6 °C 1021.9 hPa Calm   0.2 km/h 87 % 0 mm
10:23 17.1 °C 14.7 °C 1021.9 hPa Calm     86 % 0 mm
10:24 17.1 °C 14.7 °C 1021.9 hPa Calm     86 % 0 mm
10:29 17.3 °C 14.6 °C 1021.9 hPa NW 1.9 km/h   84 % 0 mm
10:31 17.3 °C 14.6 °C 1021.9 hPa Calm     84 % 0 mm
10:36 17.4 °C 14.7 °C 1021.9 hPa Calm     84 % 0 mm
10:41 17.6 °C 14.6 °C 1021.9 hPa Calm     83 % 0 mm
10:46 17.6 °C 14.7 °C 1022.2 hPa Calm     83 % 0 mm
10:51 17.8 °C 14.7 °C 1021.9 hPa Calm     82 % 0 mm
10:56 18 °C 14.7 °C 1021.9 hPa WNW 1.6 km/h   81 % 0 mm
10:58 18.1 °C 14.6 °C 1021.9 hPa NW 3.2 km/h 3.2 km/h 80 % 0 mm
11:04 18 °C 14.9 °C 1021.9 hPa WNW 3.7 km/h 3.7 km/h 82 % 0 mm
11:05 18 °C 14.9 °C 1021.9 hPa NW 1.9 km/h 1.9 km/h 82 % 0 mm
11:08 17.9 °C 14.8 °C 1021.9 hPa NW 3.2 km/h 3.2 km/h 82 % 0 mm
11:13 17.8 °C 14.7 °C 1021.9 hPa NW 1.9 km/h 1.9 km/h 82 % 0 mm
11:15 17.8 °C 14.7 °C 1021.9 hPa WNW 1.9 km/h 1.9 km/h 82 % 0 mm
11:20 17.7 °C 14.7 °C 1021.6 hPa NW 1.9 km/h 1.9 km/h 83 % 0 mm
11:25 17.7 °C 14.6 °C 1021.6 hPa NW 3.7 km/h 3.7 km/h 82 % 0 mm
11:26 17.7 °C 14.6 °C 1021.9 hPa West 1.9 km/h 1.9 km/h 82 % 0 mm
11:31 17.6 °C 14.5 °C 1021.6 hPa NNW 3.7 km/h 3.7 km/h 82 % 0 mm
11:36 17.6 °C 14.7 °C 1021.6 hPa WSW 1.9 km/h 1.9 km/h 83 % 0 mm
11:37 17.7 °C 14.7 °C 1021.6 hPa WSW 1.9 km/h 1.9 km/h 83 % 0 mm
11:48 17.7 °C 14.6 °C 1021.2 hPa West 3.7 km/h 3.7 km/h 82 % 0 mm
12:33 18.2 °C 14.7 °C 1020.5 hPa Calm     80 % 0 mm
12:38 18.2 °C 14.7 °C 1020.5 hPa NNW 1.9 km/h 1.9 km/h 80 % 0 mm
12:40 18.2 °C 14.7 °C 1020.5 hPa NNW 1.9 km/h 1.9 km/h 80 % 0 mm
12:43 18.3 °C 14.8 °C 1020.5 hPa NW 1.9 km/h 1.9 km/h 80 % 0 mm
12:48 18.2 °C 14.8 °C 1020.5 hPa NW 1.9 km/h 1.9 km/h 81 % 0 mm
12:50 18.2 °C 14.8 °C 1020.5 hPa NW 1.9 km/h 1.9 km/h 81 % 0 mm
12:51 18.1 °C 14.8 °C 1020.5 hPa NW 1.9 km/h 1.9 km/h 81 % 0 mm
12:56 18.1 °C 14.7 °C 1020.5 hPa NW 1.9 km/h   81 % 0 mm
13:01 18 °C 14.7 °C 1020.5 hPa NW 1.9 km/h 1.9 km/h 81 % 0 mm
13:02 18 °C 14.7 °C 1020.5 hPa NW 1.9 km/h 1.9 km/h 81 % 0 mm
13:07 17.9 °C 14.6 °C 1020.5 hPa NW 5.6 km/h 5.6 km/h 81 % 0 mm
13:11 17.9 °C 14.8 °C 1020.5 hPa NW 3.7 km/h 3.7 km/h 82 % 0 mm
13:13 17.9 °C 14.8 °C 1020.5 hPa North 5.6 km/h 5.6 km/h 82 % 0 mm
13:15 17.9 °C 14.8 °C 1020.5 hPa NW 3.7 km/h 3.7 km/h 82 % 0 mm
13:16 17.8 °C 14.7 °C 1020.5 hPa NW 3.7 km/h 3.7 km/h 82 % 0 mm
13:22 17.8 °C 14.7 °C 1020.5 hPa WNW 5.6 km/h 5.6 km/h 82 % 0 mm
13:27 17.7 °C 14.6 °C 1020.9 hPa NW 5.6 km/h 5.6 km/h 82 % 0 mm
13:32 17.6 °C 14.7 °C 1020.9 hPa NW 5.6 km/h 5.6 km/h 83 % 0 mm
13:35 17.6 °C 14.7 °C 1020.9 hPa NW 5.6 km/h 5.6 km/h 83 % 0 mm
13:38 17.6 °C 14.8 °C 1020.9 hPa NW 7.4 km/h 7.4 km/h 84 % 0 mm
13:43 17.5 °C 14.8 °C 1020.9 hPa NW 3.7 km/h 3.7 km/h 84 % 0 mm
13:48 17.5 °C 14.8 °C 1020.9 hPa NW 5.6 km/h 5.6 km/h 84 % 0 mm
13:53 17.5 °C 14.9 °C 1020.9 hPa WNW 5.6 km/h 5.6 km/h 85 % 0 mm
13:58 17.4 °C 14.9 °C 1020.9 hPa NNW 9.3 km/h 9.3 km/h 85 % 0 mm
14:03 17.4 °C 14.9 °C 1020.9 hPa NW 9.3 km/h 9.3 km/h 85 % 0 mm
14:04 17.4 °C 14.9 °C 1020.9 hPa WNW 3.7 km/h 3.7 km/h 85 % 0 mm
14:10 17.4 °C 14.9 °C 1020.9 hPa NW 1.9 km/h 1.9 km/h 85 % 0 mm
14:15 17.4 °C 14.9 °C 1020.9 hPa WNW 3.7 km/h 3.7 km/h 85 % 0 mm
14:20 17.5 °C 14.9 °C 1020.9 hPa NW 1.9 km/h 1.9 km/h 85 % 0 mm
14:23 17.5 °C 14.9 °C 1020.9 hPa NW 3.7 km/h 3.7 km/h 85 % 0 mm
14:28 17.5 °C 14.9 °C 1020.5 hPa NW 5.6 km/h 5.6 km/h 85 % 0 mm
14:31 17.5 °C 14.9 °C 1020.5 hPa NW 3.7 km/h 3.7 km/h 85 % 0 mm
14:36 17.4 °C 14.9 °C 1020.5 hPa North 4.8 km/h 4.8 km/h 85 % 0 mm
14:41 17.4 °C 14.9 °C 1020.5 hPa NW 1.9 km/h   85 % 0 mm
14:46 17.4 °C 14.9 °C 1020.5 hPa NW 1.6 km/h 1.6 km/h 85 % 0 mm
14:50 17.4 °C 14.9 °C 1020.5 hPa WNW 1.9 km/h 1.9 km/h 85 % 0 mm
14:55 17.5 °C 14.9 °C 1020.5 hPa NW 1.9 km/h 1.9 km/h 85 % 0 mm
15:00 17.6 °C 15 °C 1020.2 hPa NW 1.9 km/h 1.9 km/h 85 % 0 mm
15:05 17.6 °C 15.1 °C 1020.2 hPa Calm     85 % 0 mm
15:15 17.7 °C 15 °C 1020.2 hPa NW 1.9 km/h 1.9 km/h 84 % 0 mm
15:20 17.8 °C 15.1 °C 1020.2 hPa NW 1.9 km/h 1.9 km/h 84 % 0 mm
15:25 17.8 °C 15.1 °C 1020.2 hPa NNW 3.7 km/h 3.7 km/h 84 % 0 mm
15:26 17.8 °C 15.1 °C 1020.2 hPa NW 1.9 km/h 1.9 km/h 84 % 0 mm
15:31 17.8 °C 15.1 °C 1020.2 hPa NW 1.9 km/h 1.9 km/h 84 % 0 mm
15:37 17.9 °C 14.9 °C 1020.2 hPa NW 3.7 km/h 3.7 km/h 83 % 0 mm
15:42 17.9 °C 15 °C 1020.2 hPa NNW 5.6 km/h 5.6 km/h 83 % 0 mm
15:47 17.9 °C 14.9 °C 1020.2 hPa NW 1.6 km/h 1.6 km/h 83 % 0 mm
15:52 17.8 °C 14.9 °C 1020.2 hPa Calm     83 % 0 mm
15:57 17.8 °C 14.8 °C 1020.2 hPa Calm     83 % 0 mm
16:01 17.8 °C 15.1 °C 1020.2 hPa Calm     84 % 0 mm
16:04 17.7 °C 15 °C 1020.2 hPa Calm     84 % 0 mm
16:09 17.7 °C 14.9 °C 1020.2 hPa Calm     84 % 0 mm
16:14 17.6 °C 14.9 °C 1020.2 hPa Calm     84 % 0 mm
16:20 17.5 °C 14.9 °C 1020.2 hPa NW 1.9 km/h 1.9 km/h 85 % 0 mm
16:25 17.4 °C 14.9 °C 1020.5 hPa NW 3.7 km/h 3.7 km/h 85 % 0 mm
16:28 17.4 °C 14.8 °C 1020.5 hPa Calm     85 % 0 mm
16:33 17.4 °C 14.8 °C 1020.5 hPa Calm     85 % 0 mm
16:38 17.3 °C 14.7 °C 1020.5 hPa NW 1.9 km/h 1.9 km/h 85 % 0 mm
16:39 17.3 °C 14.8 °C 1020.5 hPa Calm     85 % 0 mm
16:44 17.2 °C 14.8 °C 1020.5 hPa Calm     86 % 0 mm
16:50 17.1 °C 14.7 °C 1020.5 hPa Calm     86 % 0 mm
16:55 17.1 °C 14.7 °C 1020.9 hPa Calm     86 % 0 mm
17:00 16.9 °C 14.7 °C 1020.9 hPa Calm     87 % 0 mm
17:03 16.8 °C 14.6 °C 1020.9 hPa Calm     87 % 0 mm
17:08 16.6 °C 14.6 °C 1020.9 hPa NW 1.9 km/h   88 % 0 mm
17:13 16.4 °C 14.4 °C 1020.9 hPa Calm     88 % 0 mm
17:18 16.4 °C 14.6 °C 1020.9 hPa Calm     89 % 0 mm
17:23 16.4 °C 14.6 °C 1020.9 hPa Calm     89 % 0 mm
17:25 16.3 °C 14.5 °C 1020.9 hPa Calm     89 % 0 mm
17:30 16.3 °C 14.5 °C 1020.9 hPa Calm     89 % 0 mm
17:35 16.3 °C 14.4 °C 1020.9 hPa Calm     89 % 0 mm
17:36 16.3 °C 14.4 °C 1020.9 hPa Calm     89 % 0 mm
17:41 16.2 °C 14.4 °C 1020.9 hPa Calm     89 % 0 mm
17:46 16.1 °C 14.4 °C 1020.9 hPa Calm     90 % 0 mm
17:47 16.1 °C 14.2 °C 1020.9 hPa Calm     89 % 0 mm
17:52 15.9 °C 14.3 °C 1020.9 hPa Calm     90 % 0 mm
17:57 15.7 °C 14.1 °C 1020.9 hPa Calm     90 % 0 mm
18:02 15.6 °C 14.1 °C 1020.5 hPa Calm     91 % 0 mm
18:05 15.5 °C 14.1 °C 1020.9 hPa Calm     91 % 0 mm
18:10 15.3 °C 13.9 °C 1020.9 hPa Calm     91 % 0 mm
18:12 15.3 °C 13.8 °C 1020.5 hPa Calm     91 % 0 mm
18:17 15.2 °C 13.9 °C 1020.9 hPa Calm     92 % 0 mm
18:18 15.2 °C 13.9 °C 1020.9 hPa Calm     92 % 0 mm
18:24 15.1 °C 13.8 °C 1020.9 hPa WNW 1.9 km/h 1.9 km/h 92 % 0 mm
18:29 14.9 °C 13.5 °C 1020.9 hPa WNW 1.9 km/h 1.9 km/h 91 % 0 mm
18:31 14.9 °C 13.7 °C 1020.9 hPa WNW 1.9 km/h 1.9 km/h 92 % 0 mm
18:36 14.8 °C 13.6 °C 1020.9 hPa WNW 3.7 km/h 3.7 km/h 92 % 0 mm
18:41 14.7 °C 13.4 °C 1020.5 hPa NW 1.9 km/h 1.9 km/h 92 % 0 mm
18:44 14.6 °C 13.3 °C 1020.5 hPa NW 3.2 km/h 3.2 km/h 92 % 0 mm
18:49 14.4 °C 13.3 °C 1020.5 hPa NW 1.9 km/h 1.9 km/h 93 % 0 mm
18:50 14.4 °C 13.3 °C 1020.5 hPa NW 1.9 km/h 1.9 km/h 93 % 0 mm
18:56 14.4 °C 13.4 °C 1020.5 hPa Calm     94 % 0 mm
18:58 14.3 °C 13.2 °C 1020.5 hPa NW 1.9 km/h 1.9 km/h 93 % 0 mm
19:02 14.3 °C 13.3 °C 1020.9 hPa NW 1.9 km/h   94 % 0 mm
19:07 14.2 °C 13.3 °C 1020.5 hPa NW 1.9 km/h 1.9 km/h 94 % 0 mm
19:09 14.2 °C 13.3 °C 1020.5 hPa WNW 3.2 km/h 3.2 km/h 94 % 0 mm
19:14 14.2 °C 13.2 °C 1020.5 hPa Calm     94 % 0 mm
19:16 14.1 °C 13.2 °C 1020.5 hPa Calm     94 % 0 mm
19:21 14.1 °C 13.2 °C 1020.5 hPa Calm     94 % 0 mm
19:26 14 °C 13.1 °C 1020.5 hPa Calm     94 % 0 mm
19:28 14 °C 13.1 °C 1020.5 hPa Calm     94 % 0 mm
19:34 13.8 °C 12.9 °C 1020.5 hPa Calm     94 % 0 mm
19:40 13.8 °C 12.8 °C 1020.5 hPa Calm     94 % 0 mm
19:45 13.8 °C 13 °C 1020.5 hPa NW 1.9 km/h 1.9 km/h 95 % 0 mm
19:50 13.7 °C 12.9 °C 1020.5 hPa WNW 3.7 km/h 3.7 km/h 95 % 0 mm
19:55 13.7 °C 12.9 °C 1020.5 hPa NW 3.7 km/h 3.7 km/h 95 % 0 mm
20:00 13.7 °C 12.9 °C 1020.5 hPa WNW 3.7 km/h 3.7 km/h 95 % 0 mm
20:05 13.6 °C 12.8 °C 1020.5 hPa NW 1.9 km/h   95 % 0 mm
20:10 13.6 °C 12.8 °C 1020.2 hPa WNW 1.9 km/h 2.1 km/h 95 % 0 mm
20:16 13.6 °C 12.8 °C 1020.2 hPa WNW 3.7 km/h 3.7 km/h 95 % 0 mm
20:19 13.6 °C 12.8 °C 1020.5 hPa Calm     95 % 0 mm
20:24 13.5 °C 12.7 °C 1020.5 hPa NW 1.9 km/h   95 % 0 mm
20:25 13.5 °C 12.7 °C 1020.5 hPa Calm     95 % 0 mm
20:32 13.4 °C 12.6 °C 1020.5 hPa Calm     95 % 0 mm
20:36 13.4 °C 12.6 °C 1020.5 hPa Calm     95 % 0 mm
20:41 13.3 °C 12.6 °C 1020.5 hPa Calm     95 % 0 mm
20:46 13.2 °C 12.4 °C 1020.5 hPa Calm     95 % 0 mm
20:51 13.2 °C 12.4 °C 1020.5 hPa Calm     95 % 0 mm
20:56 13.2 °C 12.4 °C 1020.5 hPa NW 1.9 km/h   95 % 0 mm
21:01 13.2 °C 12.6 °C 1020.5 hPa Calm     96 % 0 mm
21:06 13.2 °C 12.4 °C 1020.5 hPa Calm     95 % 0 mm
21:09 13.2 °C 12.6 °C 1020.5 hPa Calm     96 % 0 mm
21:15 13.2 °C 12.6 °C 1020.9 hPa Calm     96 % 0 mm
21:17 13.2 °C 12.6 °C 1020.9 hPa Calm     96 % 0 mm
21:22 13.2 °C 12.4 °C 1020.9 hPa Calm     95 % 0 mm
21:27 13.2 °C 12.4 °C 1020.9 hPa Calm     95 % 0 mm
21:32 13.2 °C 12.4 °C 1020.9 hPa Calm     95 % 0 mm
21:37 13.2 °C 12.4 °C 1020.9 hPa Calm     95 % 0 mm
21:42 13.2 °C 12.6 °C 1020.9 hPa Calm     96 % 0 mm
21:48 13.2 °C 12.6 °C 1020.9 hPa Calm     96 % 0 mm
21:53 13.2 °C 12.4 °C 1020.9 hPa Calm     95 % 0 mm
21:54 13.2 °C 12.4 °C 1020.9 hPa Calm     95 % 0 mm
21:59 13.2 °C 12.4 °C 1020.9 hPa Calm     95 % 0 mm
22:04 13.2 °C 12.4 °C 1020.9 hPa Calm     95 % 0 mm
22:05 13.1 °C 12.5 °C 1020.9 hPa Calm     96 % 0 mm
22:11 13.1 °C 12.5 °C 1020.9 hPa Calm     96 % 0 mm
22:13 13.1 °C 12.5 °C 1020.9 hPa Calm     96 % 0 mm
22:19 13.1 °C 12.4 °C 1020.9 hPa Calm     96 % 0 mm
22:24 13.1 °C 12.4 °C 1021.2 hPa Calm     96 % 0 mm
22:30 13 °C 12.4 °C 1021.2 hPa NNW 1.9 km/h 1.9 km/h 96 % 0 mm
22:32 13 °C 12.4 °C 1021.2 hPa Calm     96 % 0 mm
22:37 13 °C 12.4 °C 1021.6 hPa Calm     96 % 0 mm
22:42 13 °C 12.4 °C 1021.2 hPa Calm     96 % 0 mm
22:47 12.9 °C 12.3 °C 1021.2 hPa Calm     96 % 0 mm
22:52 12.9 °C 12.3 °C 1021.6 hPa NNW 1.6 km/h 1.6 km/h 96 % 0 mm
22:57 13 °C 12.4 °C 1021.6 hPa Calm     96 % 0 mm
22:58 13 °C 12.4 °C 1021.6 hPa SSW 1.9 km/h 1.9 km/h 96 % 0 mm
23:03 12.9 °C 12.3 °C 1021.6 hPa Calm     96 % 0 mm
23:06 12.9 °C 12.3 °C 1021.9 hPa Calm     96 % 0 mm
23:12 12.9 °C 12.3 °C 1021.6 hPa Calm     96 % 0 mm
23:17 12.9 °C 12.3 °C 1021.6 hPa Calm     96 % 0 mm
23:22 12.9 °C 12.3 °C 1021.6 hPa Calm     96 % 0 mm
23:27 12.9 °C 12.3 °C 1021.9 hPa Calm     96 % 0 mm
23:32 12.8 °C 12.2 °C 1021.9 hPa Calm     96 % 0 mm
23:33 12.8 °C 12.2 °C 1021.9 hPa Calm     96 % 0 mm
23:38 12.8 °C 12.2 °C 1021.6 hPa Calm     96 % 0 mm
23:39 12.8 °C 12.2 °C 1021.6 hPa Calm     96 % 0 mm
23:44 12.8 °C 12.2 °C 1021.6 hPa Calm     96 % 0 mm
23:49 12.7 °C 12.1 °C 1021.6 hPa Calm     96 % 0 mm
23:54 12.7 °C 12.1 °C 1021.6 hPa Calm     96 % 0 mm
23:57 12.7 °C 12.1 °C 1021.6 hPa Calm     96 % 0 mm
Park Place, Exeter, Tulare County, California, USA
Compliments of Weather Underground - 3 mb